Terminal Aerodrome Forecast
Issued by NWS

Home | Current Version | Previous Version | Text Only | Print | Product List | Glossary On
Versions: 1 2 3 4 5 6 7 8 9 10 11 12 13
000
FTPA31 PHFO 261744
TAFHJH
TAF
PHJH 261744Z 2618/2718 11010KT P6SM FEW025 SCT045 OVC200
     FM262000 05013KT P6SM SCT030 SCT050 BKN250
     FM270500 06007KT P6SM FEW030 SCT040 SCT250=

USA.gov is the U.S. government's official web portal to all federal, state and local government web resources and services.